sensor_id;sensor_type;location;lat;lon;timestamp;temperature;humidity
28763;DHT22;15918;51.270;6.522;2023-11-18T00:00:21;9.80;70.10
28763;DHT22;15918;51.270;6.522;2023-11-18T00:02:47;9.90;70.20
28763;DHT22;15918;51.270;6.522;2023-11-18T00:05:13;9.90;70.20
28763;DHT22;15918;51.270;6.522;2023-11-18T00:07:39;9.80;70.20
28763;DHT22;15918;51.270;6.522;2023-11-18T00:10:05;9.90;70.30
28763;DHT22;15918;51.270;6.522;2023-11-18T00:12:32;9.90;70.20
28763;DHT22;15918;51.270;6.522;2023-11-18T00:15:03;9.90;70.10
28763;DHT22;15918;51.270;6.522;2023-11-18T00:17:30;9.90;70.10
28763;DHT22;15918;51.270;6.522;2023-11-18T00:19:56;9.90;70.10
28763;DHT22;15918;51.270;6.522;2023-11-18T00:22:21;9.90;70.20
28763;DHT22;15918;51.270;6.522;2023-11-18T00:24:47;9.90;70.20
28763;DHT22;15918;51.270;6.522;2023-11-18T00:27:13;9.90;70.10
28763;DHT22;15918;51.270;6.522;2023-11-18T00:29:41;9.90;70.10
28763;DHT22;15918;51.270;6.522;2023-11-18T00:32:07;9.90;70.10
28763;DHT22;15918;51.270;6.522;2023-11-18T00:34:35;9.90;70.20
28763;DHT22;15918;51.270;6.522;2023-11-18T00:37:01;9.90;70.20
28763;DHT22;15918;51.270;6.522;2023-11-18T00:39:27;9.90;70.20
28763;DHT22;15918;51.270;6.522;2023-11-18T00:41:53;9.90;70.30
28763;DHT22;15918;51.270;6.522;2023-11-18T00:44:21;9.90;70.40
28763;DHT22;15918;51.270;6.522;2023-11-18T00:46:47;9.90;70.40
28763;DHT22;15918;51.270;6.522;2023-11-18T00:49:12;9.90;70.40
28763;DHT22;15918;51.270;6.522;2023-11-18T00:51:38;9.90;70.40
28763;DHT22;15918;51.270;6.522;2023-11-18T00:54:04;9.90;70.40
28763;DHT22;15918;51.270;6.522;2023-11-18T00:56:33;9.90;70.30
28763;DHT22;15918;51.270;6.522;2023-11-18T00:58:59;9.90;70.30
28763;DHT22;15918;51.270;6.522;2023-11-18T01:01:26;9.90;70.40
28763;DHT22;15918;51.270;6.522;2023-11-18T01:03:52;9.90;70.40
28763;DHT22;15918;51.270;6.522;2023-11-18T01:06:19;9.90;70.40
28763;DHT22;15918;51.270;6.522;2023-11-18T01:08:47;9.90;70.40
28763;DHT22;15918;51.270;6.522;2023-11-18T01:11:16;9.90;70.80
28763;DHT22;15918;51.270;6.522;2023-11-18T01:13:46;9.90;71.10
28763;DHT22;15918;51.270;6.522;2023-11-18T01:16:12;9.90;70.50
28763;DHT22;15918;51.270;6.522;2023-11-18T01:18:39;9.90;70.40
28763;DHT22;15918;51.270;6.522;2023-11-18T01:21:05;9.90;70.50
28763;DHT22;15918;51.270;6.522;2023-11-18T01:23:31;9.90;70.60
28763;DHT22;15918;51.270;6.522;2023-11-18T01:25:56;9.90;70.60
28763;DHT22;15918;51.270;6.522;2023-11-18T01:28:22;9.90;70.50
28763;DHT22;15918;51.270;6.522;2023-11-18T01:30:51;9.90;70.40
28763;DHT22;15918;51.270;6.522;2023-11-18T01:33:17;9.90;70.30
28763;DHT22;15918;51.270;6.522;2023-11-18T01:35:43;9.90;70.20
28763;DHT22;15918;51.270;6.522;2023-11-18T01:38:09;9.90;70.40
28763;DHT22;15918;51.270;6.522;2023-11-18T01:40:37;9.90;70.40
28763;DHT22;15918;51.270;6.522;2023-11-18T01:43:02;9.90;70.20
28763;DHT22;15918;51.270;6.522;2023-11-18T01:45:30;9.90;70.30
28763;DHT22;15918;51.270;6.522;2023-11-18T01:47:56;9.90;70.30
28763;DHT22;15918;51.270;6.522;2023-11-18T01:50:22;9.90;70.30
28763;DHT22;15918;51.270;6.522;2023-11-18T01:52:48;9.90;70.30
28763;DHT22;15918;51.270;6.522;2023-11-18T01:55:14;9.90;70.20
28763;DHT22;15918;51.270;6.522;2023-11-18T01:57:39;9.90;70.20
28763;DHT22;15918;51.270;6.522;2023-11-18T02:00:09;9.90;70.20
28763;DHT22;15918;51.270;6.522;2023-11-18T02:02:36;9.90;70.10
28763;DHT22;15918;51.270;6.522;2023-11-18T02:05:03;9.90;70.20
28763;DHT22;15918;51.270;6.522;2023-11-18T02:07:32;9.90;70.20
28763;DHT22;15918;51.270;6.522;2023-11-18T02:09:59;9.90;70.20
28763;DHT22;15918;51.270;6.522;2023-11-18T02:15:06;9.90;70.00
28763;DHT22;15918;51.270;6.522;2023-11-18T02:17:37;9.80;70.20
28763;DHT22;15918;51.270;6.522;2023-11-18T02:20:04;9.80;70.20
28763;DHT22;15918;51.270;6.522;2023-11-18T02:22:41;9.80;70.20
28763;DHT22;15918;51.270;6.522;2023-11-18T02:25:09;9.80;70.20
28763;DHT22;15918;51.270;6.522;2023-11-18T02:27:37;9.80;70.30
28763;DHT22;15918;51.270;6.522;2023-11-18T02:30:03;9.80;70.20
28763;DHT22;15918;51.270;6.522;2023-11-18T02:32:45;9.80;70.20
28763;DHT22;15918;51.270;6.522;2023-11-18T02:35:20;9.80;70.10
28763;DHT22;15918;51.270;6.522;2023-11-18T02:37:50;9.80;70.30
28763;DHT22;15918;51.270;6.522;2023-11-18T02:40:19;9.80;70.40
28763;DHT22;15918;51.270;6.522;2023-11-18T02:42:46;9.80;70.20
28763;DHT22;15918;51.270;6.522;2023-11-18T02:45:15;9.80;70.40
28763;DHT22;15918;51.270;6.522;2023-11-18T02:47:44;9.80;70.20
28763;DHT22;15918;51.270;6.522;2023-11-18T02:50:10;9.80;70.30
28763;DHT22;15918;51.270;6.522;2023-11-18T02:52:42;9.80;70.40
28763;DHT22;15918;51.270;6.522;2023-11-18T02:55:08;9.80;70.30
28763;DHT22;15918;51.270;6.522;2023-11-18T02:57:38;9.80;70.50
28763;DHT22;15918;51.270;6.522;2023-11-18T03:00:04;9.80;70.30
28763;DHT22;15918;51.270;6.522;2023-11-18T03:02:31;9.80;70.40
28763;DHT22;15918;51.270;6.522;2023-11-18T03:04:57;9.80;70.40
28763;DHT22;15918;51.270;6.522;2023-11-18T03:07:23;9.80;70.40
28763;DHT22;15918;51.270;6.522;2023-11-18T03:09:48;9.80;70.40
28763;DHT22;15918;51.270;6.522;2023-11-18T03:12:14;9.80;70.40
28763;DHT22;15918;51.270;6.522;2023-11-18T03:14:39;9.80;70.50
28763;DHT22;15918;51.270;6.522;2023-11-18T03:17:05;9.80;70.50
28763;DHT22;15918;51.270;6.522;2023-11-18T03:19:35;9.80;70.40
28763;DHT22;15918;51.270;6.522;2023-11-18T03:22:02;9.80;70.50
28763;DHT22;15918;51.270;6.522;2023-11-18T03:24:28;9.80;70.60
28763;DHT22;15918;51.270;6.522;2023-11-18T03:26:57;9.80;70.70
28763;DHT22;15918;51.270;6.522;2023-11-18T03:29:22;9.80;70.70
28763;DHT22;15918;51.270;6.522;2023-11-18T03:31:49;9.80;70.80
28763;DHT22;15918;51.270;6.522;2023-11-18T03:34:18;9.80;70.80
28763;DHT22;15918;51.270;6.522;2023-11-18T03:36:47;9.80;70.70
28763;DHT22;15918;51.270;6.522;2023-11-18T03:39:13;9.80;70.80
28763;DHT22;15918;51.270;6.522;2023-11-18T03:41:40;9.80;70.70
28763;DHT22;15918;51.270;6.522;2023-11-18T03:44:05;9.80;70.70
28763;DHT22;15918;51.270;6.522;2023-11-18T03:46:31;9.80;70.70
28763;DHT22;15918;51.270;6.522;2023-11-18T03:49:00;9.80;70.80
28763;DHT22;15918;51.270;6.522;2023-11-18T03:51:26;9.80;70.90
28763;DHT22;15918;51.270;6.522;2023-11-18T03:53:52;9.80;71.00
28763;DHT22;15918;51.270;6.522;2023-11-18T03:56:18;9.80;71.00
28763;DHT22;15918;51.270;6.522;2023-11-18T03:58:44;9.80;71.00
28763;DHT22;15918;51.270;6.522;2023-11-18T04:01:09;9.80;70.90
28763;DHT22;15918;51.270;6.522;2023-11-18T04:03:36;9.80;70.80
28763;DHT22;15918;51.270;6.522;2023-11-18T04:06:02;9.80;70.90
28763;DHT22;15918;51.270;6.522;2023-11-18T04:08:29;9.80;71.00
28763;DHT22;15918;51.270;6.522;2023-11-18T04:10:54;9.80;71.00
28763;DHT22;15918;51.270;6.522;2023-11-18T04:13:20;9.80;71.10
28763;DHT22;15918;51.270;6.522;2023-11-18T04:15:45;9.80;71.00
28763;DHT22;15918;51.270;6.522;2023-11-18T04:18:11;9.80;71.00
28763;DHT22;15918;51.270;6.522;2023-11-18T04:20:36;9.80;71.00
28763;DHT22;15918;51.270;6.522;2023-11-18T04:23:02;9.80;71.10
28763;DHT22;15918;51.270;6.522;2023-11-18T04:25:28;9.80;71.10
28763;DHT22;15918;51.270;6.522;2023-11-18T04:27:53;9.80;71.20
28763;DHT22;15918;51.270;6.522;2023-11-18T04:30:19;9.80;71.10
28763;DHT22;15918;51.270;6.522;2023-11-18T04:32:44;9.80;71.20
28763;DHT22;15918;51.270;6.522;2023-11-18T04:35:10;9.70;71.10
28763;DHT22;15918;51.270;6.522;2023-11-18T04:37:37;9.70;71.10
28763;DHT22;15918;51.270;6.522;2023-11-18T04:40:05;9.80;71.20
28763;DHT22;15918;51.270;6.522;2023-11-18T04:42:34;9.80;71.10
28763;DHT22;15918;51.270;6.522;2023-11-18T04:45:00;9.70;71.20
28763;DHT22;15918;51.270;6.522;2023-11-18T04:47:26;9.70;71.30
28763;DHT22;15918;51.270;6.522;2023-11-18T04:49:52;9.70;72.00
28763;DHT22;15918;51.270;6.522;2023-11-18T04:52:18;9.80;71.40
28763;DHT22;15918;51.270;6.522;2023-11-18T04:54:45;9.70;71.20
28763;DHT22;15918;51.270;6.522;2023-11-18T04:57:13;9.70;71.30
28763;DHT22;15918;51.270;6.522;2023-11-18T04:59:39;9.70;71.30
28763;DHT22;15918;51.270;6.522;2023-11-18T05:02:04;9.70;71.30
28763;DHT22;15918;51.270;6.522;2023-11-18T05:04:31;9.70;71.20
28763;DHT22;15918;51.270;6.522;2023-11-18T05:06:57;9.70;71.30
28763;DHT22;15918;51.270;6.522;2023-11-18T05:09:22;9.70;71.30
28763;DHT22;15918;51.270;6.522;2023-11-18T05:11:48;9.70;71.20
28763;DHT22;15918;51.270;6.522;2023-11-18T05:14:13;9.80;71.40
28763;DHT22;15918;51.270;6.522;2023-11-18T05:16:42;9.70;71.30
28763;DHT22;15918;51.270;6.522;2023-11-18T05:19:07;9.70;71.40
28763;DHT22;15918;51.270;6.522;2023-11-18T05:21:33;9.70;71.50
28763;DHT22;15918;51.270;6.522;2023-11-18T05:23:58;9.70;71.30
28763;DHT22;15918;51.270;6.522;2023-11-18T05:26:24;9.80;71.40
28763;DHT22;15918;51.270;6.522;2023-11-18T05:28:50;9.70;71.40
28763;DHT22;15918;51.270;6.522;2023-11-18T05:31:16;9.70;71.30
28763;DHT22;15918;51.270;6.522;2023-11-18T05:33:42;9.80;71.40
28763;DHT22;15918;51.270;6.522;2023-11-18T05:36:08;9.70;71.40
28763;DHT22;15918;51.270;6.522;2023-11-18T05:38:34;9.70;71.50
28763;DHT22;15918;51.270;6.522;2023-11-18T05:41:02;9.80;71.40
28763;DHT22;15918;51.270;6.522;2023-11-18T05:43:31;9.80;71.50
28763;DHT22;15918;51.270;6.522;2023-11-18T05:46:06;9.80;71.60
28763;DHT22;15918;51.270;6.522;2023-11-18T05:48:42;9.80;71.60
28763;DHT22;15918;51.270;6.522;2023-11-18T05:51:08;9.80;71.50
28763;DHT22;15918;51.270;6.522;2023-11-18T05:53:33;9.80;71.50
28763;DHT22;15918;51.270;6.522;2023-11-18T05:55:59;9.80;71.50
28763;DHT22;15918;51.270;6.522;2023-11-18T05:58:25;9.70;71.40
28763;DHT22;15918;51.270;6.522;2023-11-18T06:00:50;9.80;71.40
28763;DHT22;15918;51.270;6.522;2023-11-18T06:03:16;9.80;71.40
28763;DHT22;15918;51.270;6.522;2023-11-18T06:05:41;9.80;71.50
28763;DHT22;15918;51.270;6.522;2023-11-18T06:08:07;9.80;71.50
28763;DHT22;15918;51.270;6.522;2023-11-18T06:10:33;9.80;71.50
28763;DHT22;15918;51.270;6.522;2023-11-18T06:12:59;9.80;71.50
28763;DHT22;15918;51.270;6.522;2023-11-18T06:15:25;9.80;71.40
28763;DHT22;15918;51.270;6.522;2023-11-18T06:17:53;9.80;71.30
28763;DHT22;15918;51.270;6.522;2023-11-18T06:20:20;9.80;71.30
28763;DHT22;15918;51.270;6.522;2023-11-18T06:22:48;9.80;71.30
28763;DHT22;15918;51.270;6.522;2023-11-18T06:25:13;9.80;71.20
28763;DHT22;15918;51.270;6.522;2023-11-18T06:27:39;9.70;71.30
28763;DHT22;15918;51.270;6.522;2023-11-18T06:30:05;9.70;71.30
28763;DHT22;15918;51.270;6.522;2023-11-18T06:32:32;9.80;71.50
28763;DHT22;15918;51.270;6.522;2023-11-18T06:34:57;9.80;71.40
28763;DHT22;15918;51.270;6.522;2023-11-18T06:37:23;9.80;71.40
28763;DHT22;15918;51.270;6.522;2023-11-18T06:39:49;9.70;72.10
28763;DHT22;15918;51.270;6.522;2023-11-18T06:42:15;9.80;71.40
28763;DHT22;15918;51.270;6.522;2023-11-18T06:44:41;9.80;71.40
28763;DHT22;15918;51.270;6.522;2023-11-18T06:47:07;9.80;71.40
28763;DHT22;15918;51.270;6.522;2023-11-18T06:49:32;9.80;71.40
28763;DHT22;15918;51.270;6.522;2023-11-18T06:52:02;9.80;71.40
28763;DHT22;15918;51.270;6.522;2023-11-18T06:54:28;9.80;71.50
28763;DHT22;15918;51.270;6.522;2023-11-18T06:56:54;9.70;71.50
28763;DHT22;15918;51.270;6.522;2023-11-18T06:59:20;9.80;71.60
28763;DHT22;15918;51.270;6.522;2023-11-18T07:01:45;9.80;71.60
28763;DHT22;15918;51.270;6.522;2023-11-18T07:04:11;9.70;71.50
28763;DHT22;15918;51.270;6.522;2023-11-18T07:06:37;9.70;71.60
28763;DHT22;15918;51.270;6.522;2023-11-18T07:09:07;9.80;71.70
28763;DHT22;15918;51.270;6.522;2023-11-18T07:11:43;9.80;71.80
28763;DHT22;15918;51.270;6.522;2023-11-18T07:14:11;9.80;71.60
28763;DHT22;15918;51.270;6.522;2023-11-18T07:16:38;9.80;71.40
28763;DHT22;15918;51.270;6.522;2023-11-18T07:19:04;9.80;71.50
28763;DHT22;15918;51.270;6.522;2023-11-18T07:21:30;9.80;71.60
28763;DHT22;15918;51.270;6.522;2023-11-18T07:23:55;9.80;71.60
28763;DHT22;15918;51.270;6.522;2023-11-18T07:26:22;9.70;71.50
28763;DHT22;15918;51.270;6.522;2023-11-18T07:28:49;9.80;71.60
28763;DHT22;15918;51.270;6.522;2023-11-18T07:31:15;9.80;71.60
28763;DHT22;15918;51.270;6.522;2023-11-18T07:33:46;9.80;71.80
28763;DHT22;15918;51.270;6.522;2023-11-18T07:36:16;9.70;71.70
28763;DHT22;15918;51.270;6.522;2023-11-18T07:38:42;9.70;71.80
28763;DHT22;15918;51.270;6.522;2023-11-18T07:41:08;9.70;71.80
28763;DHT22;15918;51.270;6.522;2023-11-18T07:43:35;9.70;71.80
28763;DHT22;15918;51.270;6.522;2023-11-18T07:46:05;9.70;71.80
28763;DHT22;15918;51.270;6.522;2023-11-18T07:48:33;9.80;71.80
28763;DHT22;15918;51.270;6.522;2023-11-18T07:50:58;9.80;71.80
28763;DHT22;15918;51.270;6.522;2023-11-18T07:53:24;9.70;71.80
28763;DHT22;15918;51.270;6.522;2023-11-18T07:55:51;9.70;71.80
28763;DHT22;15918;51.270;6.522;2023-11-18T07:58:16;9.80;71.80
28763;DHT22;15918;51.270;6.522;2023-11-18T08:00:44;9.70;71.80
28763;DHT22;15918;51.270;6.522;2023-11-18T08:03:13;9.70;71.90
28763;DHT22;15918;51.270;6.522;2023-11-18T08:05:40;9.80;71.90
28763;DHT22;15918;51.270;6.522;2023-11-18T08:08:07;9.70;71.90
28763;DHT22;15918;51.270;6.522;2023-11-18T08:10:36;9.70;71.90
28763;DHT22;15918;51.270;6.522;2023-11-18T08:13:05;9.80;72.10
28763;DHT22;15918;51.270;6.522;2023-11-18T08:15:39;9.80;72.10
28763;DHT22;15918;51.270;6.522;2023-11-18T08:18:05;9.70;72.10
28763;DHT22;15918;51.270;6.522;2023-11-18T08:20:32;9.70;72.30
28763;DHT22;15918;51.270;6.522;2023-11-18T08:22:57;9.70;72.30
28763;DHT22;15918;51.270;6.522;2023-11-18T08:25:23;9.70;72.30
28763;DHT22;15918;51.270;6.522;2023-11-18T08:27:49;9.80;72.20
28763;DHT22;15918;51.270;6.522;2023-11-18T08:30:15;9.80;72.30
28763;DHT22;15918;51.270;6.522;2023-11-18T08:32:44;9.80;72.30
28763;DHT22;15918;51.270;6.522;2023-11-18T08:35:10;9.80;72.20
28763;DHT22;15918;51.270;6.522;2023-11-18T08:37:39;9.90;72.40
28763;DHT22;15918;51.270;6.522;2023-11-18T08:40:06;9.80;72.40
28763;DHT22;15918;51.270;6.522;2023-11-18T08:42:43;9.80;72.40
28763;DHT22;15918;51.270;6.522;2023-11-18T08:45:14;9.80;72.30
28763;DHT22;15918;51.270;6.522;2023-11-18T08:47:43;9.80;72.30
28763;DHT22;15918;51.270;6.522;2023-11-18T08:50:09;9.90;72.40
28763;DHT22;15918;51.270;6.522;2023-11-18T08:52:38;9.90;72.40
28763;DHT22;15918;51.270;6.522;2023-11-18T08:55:09;9.80;72.40
28763;DHT22;15918;51.270;6.522;2023-11-18T08:57:43;9.90;72.50
28763;DHT22;15918;51.270;6.522;2023-11-18T09:00:27;9.80;72.50
28763;DHT22;15918;51.270;6.522;2023-11-18T09:03:17;9.80;72.60
28763;DHT22;15918;51.270;6.522;2023-11-18T09:05:55;9.80;72.50
28763;DHT22;15918;51.270;6.522;2023-11-18T09:08:27;9.80;72.70
28763;DHT22;15918;51.270;6.522;2023-11-18T09:10:55;9.80;72.50
28763;DHT22;15918;51.270;6.522;2023-11-18T09:13:25;9.80;72.70
28763;DHT22;15918;51.270;6.522;2023-11-18T09:15:58;9.90;73.30
28763;DHT22;15918;51.270;6.522;2023-11-18T09:18:26;9.80;72.50
28763;DHT22;15918;51.270;6.522;2023-11-18T09:20:56;9.80;72.80
28763;DHT22;15918;51.270;6.522;2023-11-18T09:23:26;9.80;72.80
28763;DHT22;15918;51.270;6.522;2023-11-18T09:25:53;9.90;72.80
28763;DHT22;15918;51.270;6.522;2023-11-18T09:28:20;9.90;72.70
28763;DHT22;15918;51.270;6.522;2023-11-18T09:30:46;9.90;72.90
28763;DHT22;15918;51.270;6.522;2023-11-18T09:33:18;9.90;72.90
28763;DHT22;15918;51.270;6.522;2023-11-18T09:35:56;9.90;73.00
28763;DHT22;15918;51.270;6.522;2023-11-18T09:38:26;9.90;73.00
28763;DHT22;15918;51.270;6.522;2023-11-18T09:40:53;9.90;73.00
28763;DHT22;15918;51.270;6.522;2023-11-18T09:43:20;9.90;72.90
28763;DHT22;15918;51.270;6.522;2023-11-18T09:45:54;9.90;72.80
28763;DHT22;15918;51.270;6.522;2023-11-18T09:48:21;9.90;72.80
28763;DHT22;15918;51.270;6.522;2023-11-18T09:50:52;9.90;73.00
28763;DHT22;15918;51.270;6.522;2023-11-18T09:53:17;9.90;72.90
28763;DHT22;15918;51.270;6.522;2023-11-18T09:55:56;9.90;72.90
28763;DHT22;15918;51.270;6.522;2023-11-18T09:58:32;9.90;72.80
28763;DHT22;15918;51.270;6.522;2023-11-18T10:01:06;9.90;72.90
28763;DHT22;15918;51.270;6.522;2023-11-18T10:03:32;9.90;73.10
28763;DHT22;15918;51.270;6.522;2023-11-18T10:06:02;9.90;73.10
28763;DHT22;15918;51.270;6.522;2023-11-18T10:08:31;9.90;73.00
28763;DHT22;15918;51.270;6.522;2023-11-18T10:10:57;9.90;73.10
28763;DHT22;15918;51.270;6.522;2023-11-18T10:13:34;10.00;73.10
28763;DHT22;15918;51.270;6.522;2023-11-18T10:16:01;9.90;73.20
28763;DHT22;15918;51.270;6.522;2023-11-18T10:18:27;9.90;73.30
28763;DHT22;15918;51.270;6.522;2023-11-18T10:20:54;9.90;73.40
28763;DHT22;15918;51.270;6.522;2023-11-18T10:23:21;9.90;73.60
28763;DHT22;15918;51.270;6.522;2023-11-18T10:25:51;9.90;73.60
28763;DHT22;15918;51.270;6.522;2023-11-18T10:28:30;10.00;73.80
28763;DHT22;15918;51.270;6.522;2023-11-18T10:31:01;9.90;73.80
28763;DHT22;15918;51.270;6.522;2023-11-18T10:33:35;9.90;74.00
28763;DHT22;15918;51.270;6.522;2023-11-18T10:36:02;9.90;74.10
28763;DHT22;15918;51.270;6.522;2023-11-18T10:38:37;9.90;74.20
28763;DHT22;15918;51.270;6.522;2023-11-18T10:41:05;9.90;74.30
28763;DHT22;15918;51.270;6.522;2023-11-18T10:43:31;9.90;74.30
28763;DHT22;15918;51.270;6.522;2023-11-18T10:46:11;9.90;74.30
28763;DHT22;15918;51.270;6.522;2023-11-18T10:48:47;9.90;74.30
28763;DHT22;15918;51.270;6.522;2023-11-18T10:51:16;9.90;74.30
28763;DHT22;15918;51.270;6.522;2023-11-18T10:53:43;9.90;74.60
28763;DHT22;15918;51.270;6.522;2023-11-18T10:56:22;9.90;74.60
28763;DHT22;15918;51.270;6.522;2023-11-18T10:58:58;9.90;74.70
28763;DHT22;15918;51.270;6.522;2023-11-18T11:01:35;9.90;74.60
28763;DHT22;15918;51.270;6.522;2023-11-18T11:04:11;10.00;74.80
28763;DHT22;15918;51.270;6.522;2023-11-18T11:06:44;9.90;74.90
28763;DHT22;15918;51.270;6.522;2023-11-18T11:09:23;10.00;74.80
28763;DHT22;15918;51.270;6.522;2023-11-18T11:12:05;9.90;75.00
28763;DHT22;15918;51.270;6.522;2023-11-18T11:14:35;10.00;75.10
28763;DHT22;15918;51.270;6.522;2023-11-18T11:17:07;10.00;75.10
28763;DHT22;15918;51.270;6.522;2023-11-18T11:19:50;10.00;75.20
28763;DHT22;15918;51.270;6.522;2023-11-18T11:22:24;10.00;75.80
28763;DHT22;15918;51.270;6.522;2023-11-18T11:25:04;10.00;75.30
28763;DHT22;15918;51.270;6.522;2023-11-18T11:31:00;10.10;76.20
28763;DHT22;15918;51.270;6.522;2023-11-18T11:33:42;10.10;75.40
28763;DHT22;15918;51.270;6.522;2023-11-18T11:36:12;10.00;75.50
28763;DHT22;15918;51.270;6.522;2023-11-18T11:38:41;10.00;75.60
28763;DHT22;15918;51.270;6.522;2023-11-18T11:41:13;10.00;75.70
28763;DHT22;15918;51.270;6.522;2023-11-18T11:43:46;10.10;75.70
28763;DHT22;15918;51.270;6.522;2023-11-18T11:46:12;10.10;75.80
28763;DHT22;15918;51.270;6.522;2023-11-18T11:48:40;10.10;75.90
28763;DHT22;15918;51.270;6.522;2023-11-18T11:54:09;10.10;76.00
28763;DHT22;15918;51.270;6.522;2023-11-18T11:56:48;10.20;75.70
28763;DHT22;15918;51.270;6.522;2023-11-18T12:02:13;10.20;75.90
28763;DHT22;15918;51.270;6.522;2023-11-18T12:04:51;10.10;76.00
28763;DHT22;15918;51.270;6.522;2023-11-18T12:07:20;10.20;75.90
28763;DHT22;15918;51.270;6.522;2023-11-18T12:09:49;10.20;76.00
28763;DHT22;15918;51.270;6.522;2023-11-18T12:12:20;10.20;76.90
28763;DHT22;15918;51.270;6.522;2023-11-18T12:14:54;10.20;76.30
28763;DHT22;15918;51.270;6.522;2023-11-18T12:20:53;10.20;76.40
28763;DHT22;15918;51.270;6.522;2023-11-18T12:23:28;10.30;76.30
28763;DHT22;15918;51.270;6.522;2023-11-18T12:25:56;10.20;76.80
28763;DHT22;15918;51.270;6.522;2023-11-18T12:28:30;10.20;76.70
28763;DHT22;15918;51.270;6.522;2023-11-18T12:31:00;10.20;76.80
28763;DHT22;15918;51.270;6.522;2023-11-18T12:33:59;10.20;76.90
28763;DHT22;15918;51.270;6.522;2023-11-18T12:39:32;10.30;77.00
28763;DHT22;15918;51.270;6.522;2023-11-18T12:42:06;10.30;76.80
28763;DHT22;15918;51.270;6.522;2023-11-18T12:47:43;10.30;76.70
28763;DHT22;15918;51.270;6.522;2023-11-18T12:50:11;10.30;77.20
28763;DHT22;15918;51.270;6.522;2023-11-18T12:52:53;10.30;77.20
28763;DHT22;15918;51.270;6.522;2023-11-18T12:55:20;10.30;77.00
28763;DHT22;15918;51.270;6.522;2023-11-18T12:57:49;10.30;77.10
28763;DHT22;15918;51.270;6.522;2023-11-18T13:00:17;10.30;77.20
28763;DHT22;15918;51.270;6.522;2023-11-18T13:02:53;10.40;77.30
28763;DHT22;15918;51.270;6.522;2023-11-18T13:05:20;10.30;77.30
28763;DHT22;15918;51.270;6.522;2023-11-18T13:07:46;10.30;77.40
28763;DHT22;15918;51.270;6.522;2023-11-18T13:10:14;10.30;77.40
28763;DHT22;15918;51.270;6.522;2023-11-18T13:12:41;10.30;77.50
28763;DHT22;15918;51.270;6.522;2023-11-18T13:15:09;10.30;77.60
28763;DHT22;15918;51.270;6.522;2023-11-18T13:17:35;10.30;77.80
28763;DHT22;15918;51.270;6.522;2023-11-18T13:20:15;10.30;77.80
28763;DHT22;15918;51.270;6.522;2023-11-18T13:22:43;10.40;77.80
28763;DHT22;15918;51.270;6.522;2023-11-18T13:25:08;10.30;78.00
28763;DHT22;15918;51.270;6.522;2023-11-18T13:27:35;10.30;78.00
28763;DHT22;15918;51.270;6.522;2023-11-18T13:30:01;10.30;78.00
28763;DHT22;15918;51.270;6.522;2023-11-18T13:32:29;10.30;78.10
28763;DHT22;15918;51.270;6.522;2023-11-18T13:34:55;10.30;78.20
28763;DHT22;15918;51.270;6.522;2023-11-18T13:37:21;10.40;78.30
28763;DHT22;15918;51.270;6.522;2023-11-18T13:39:57;10.30;78.40
28763;DHT22;15918;51.270;6.522;2023-11-18T13:42:27;10.40;78.40
28763;DHT22;15918;51.270;6.522;2023-11-18T13:45:00;10.30;78.60
28763;DHT22;15918;51.270;6.522;2023-11-18T13:47:28;10.30;78.60
28763;DHT22;15918;51.270;6.522;2023-11-18T13:49:54;10.30;78.70
28763;DHT22;15918;51.270;6.522;2023-11-18T13:52:20;10.30;78.80
28763;DHT22;15918;51.270;6.522;2023-11-18T13:54:49;10.30;78.80
28763;DHT22;15918;51.270;6.522;2023-11-18T13:57:20;10.30;78.70
28763;DHT22;15918;51.270;6.522;2023-11-18T13:59:49;10.30;78.80
28763;DHT22;15918;51.270;6.522;2023-11-18T14:02:15;10.30;78.90
28763;DHT22;15918;51.270;6.522;2023-11-18T14:04:42;10.40;78.90
28763;DHT22;15918;51.270;6.522;2023-11-18T14:07:09;10.30;78.80
28763;DHT22;15918;51.270;6.522;2023-11-18T14:09:37;10.30;78.90
28763;DHT22;15918;51.270;6.522;2023-11-18T14:12:07;10.30;78.80
28763;DHT22;15918;51.270;6.522;2023-11-18T14:14:33;10.30;78.80
28763;DHT22;15918;51.270;6.522;2023-11-18T14:16:59;10.40;79.00
28763;DHT22;15918;51.270;6.522;2023-11-18T14:19:25;10.40;79.00
28763;DHT22;15918;51.270;6.522;2023-11-18T14:21:51;10.40;79.10
28763;DHT22;15918;51.270;6.522;2023-11-18T14:24:17;10.40;79.20
28763;DHT22;15918;51.270;6.522;2023-11-18T14:26:44;10.30;79.10
28763;DHT22;15918;51.270;6.522;2023-11-18T14:29:09;10.40;79.20
28763;DHT22;15918;51.270;6.522;2023-11-18T14:31:37;10.30;79.20
28763;DHT22;15918;51.270;6.522;2023-11-18T14:34:03;10.30;79.30
28763;DHT22;15918;51.270;6.522;2023-11-18T14:36:29;10.30;79.40
28763;DHT22;15918;51.270;6.522;2023-11-18T14:38:55;10.30;79.40
28763;DHT22;15918;51.270;6.522;2023-11-18T14:41:21;10.30;79.50
28763;DHT22;15918;51.270;6.522;2023-11-18T14:43:52;10.30;79.50
28763;DHT22;15918;51.270;6.522;2023-11-18T14:46:18;10.40;79.60
28763;DHT22;15918;51.270;6.522;2023-11-18T14:48:44;10.30;79.60
28763;DHT22;15918;51.270;6.522;2023-11-18T14:51:10;10.30;79.60
28763;DHT22;15918;51.270;6.522;2023-11-18T14:53:36;10.30;79.60
28763;DHT22;15918;51.270;6.522;2023-11-18T14:56:03;10.40;79.70
28763;DHT22;15918;51.270;6.522;2023-11-18T14:58:31;10.40;79.70
28763;DHT22;15918;51.270;6.522;2023-11-18T15:00:58;10.30;79.70
28763;DHT22;15918;51.270;6.522;2023-11-18T15:03:25;10.30;79.70
28763;DHT22;15918;51.270;6.522;2023-11-18T15:05:50;10.30;79.60
28763;DHT22;15918;51.270;6.522;2023-11-18T15:08:16;10.40;79.70
28763;DHT22;15918;51.270;6.522;2023-11-18T15:10:42;10.40;79.80
28763;DHT22;15918;51.270;6.522;2023-11-18T15:13:08;10.30;79.80
28763;DHT22;15918;51.270;6.522;2023-11-18T15:15:44;10.30;79.80
28763;DHT22;15918;51.270;6.522;2023-11-18T15:18:13;10.30;79.80
28763;DHT22;15918;51.270;6.522;2023-11-18T15:20:43;10.40;79.90
28763;DHT22;15918;51.270;6.522;2023-11-18T15:23:09;10.40;79.80
28763;DHT22;15918;51.270;6.522;2023-11-18T15:25:35;10.40;79.70
28763;DHT22;15918;51.270;6.522;2023-11-18T15:28:01;10.40;79.70
28763;DHT22;15918;51.270;6.522;2023-11-18T15:30:26;10.40;79.70
28763;DHT22;15918;51.270;6.522;2023-11-18T15:32:53;10.40;79.60
28763;DHT22;15918;51.270;6.522;2023-11-18T15:35:19;10.40;79.60
28763;DHT22;15918;51.270;6.522;2023-11-18T15:37:47;10.40;79.70
28763;DHT22;15918;51.270;6.522;2023-11-18T15:40:14;10.40;79.70
28763;DHT22;15918;51.270;6.522;2023-11-18T15:42:45;10.40;79.70
28763;DHT22;15918;51.270;6.522;2023-11-18T15:45:23;10.40;79.70
28763;DHT22;15918;51.270;6.522;2023-11-18T15:47:50;10.50;79.60
28763;DHT22;15918;51.270;6.522;2023-11-18T15:50:16;10.40;79.70
28763;DHT22;15918;51.270;6.522;2023-11-18T15:52:42;10.40;79.70
28763;DHT22;15918;51.270;6.522;2023-11-18T15:55:09;10.50;79.70
28763;DHT22;15918;51.270;6.522;2023-11-18T15:57:45;10.50;79.80
28763;DHT22;15918;51.270;6.522;2023-11-18T16:00:13;10.50;79.80
28763;DHT22;15918;51.270;6.522;2023-11-18T16:02:48;10.50;79.80
28763;DHT22;15918;51.270;6.522;2023-11-18T16:05:15;10.40;79.70
28763;DHT22;15918;51.270;6.522;2023-11-18T16:07:46;10.50;79.80
28763;DHT22;15918;51.270;6.522;2023-11-18T16:10:13;10.50;79.80